Oban — PDWJ — position and weather

sailwx.info

Track history (hours):
 
Tides and Currents Weather Stations Pressure Air Temp Water Temp Dewpoint Dewpoint Depression Visibility Wind Speed Wind Dir Waves Ship Positions

Oban

Last reported at 2019-Sep-16 06:47 UTC. Time now 2019-Sep-16 22:11 UTC.
Position N 54°20' E 010°09'.

Length 39 m; draft 2.8 m.

Type: Sailing vessel. MMSI: 246085000.

Date/timePositionNaut miles runAvg speedWind from/ knotsBaromVisibWave heightAir tempDewpointWater temp
2019-Sep-16 06:47N 54°20' E 010°09'0 0.0
2019-Sep-16 06:30N 54°20' E 010°09'0 0.0
2019-Sep-16 06:00N 54°20' E 010°09'0 0.0
2019-Sep-16 05:30N 54°20' E 010°09'0 0.0
2019-Sep-16 05:00N 54°20' E 010°09'0 0.0
2019-Sep-16 04:30N 54°20' E 010°09'0 0.0
2019-Sep-16 04:00N 54°20' E 010°09'0 0.0
2019-Sep-16 03:30N 54°20' E 010°09'0 0.0
2019-Sep-16 03:00N 54°20' E 010°09'0 0.0
2019-Sep-16 02:30N 54°20' E 010°09'0 0.0
2019-Sep-16 02:00N 54°20' E 010°09'0 0.0
2019-Sep-16 01:30N 54°20' E 010°09'0 0.0
2019-Sep-16 01:00N 54°20' E 010°09'0 0.0
2019-Sep-16 00:30N 54°20' E 010°09'0 0.0
2019-Sep-16 00:00N 54°20' E 010°09'0 0.0
2019-Sep-15 23:30N 54°20' E 010°09'0 0.0
2019-Sep-15 23:00N 54°20' E 010°09'0 0.0
2019-Sep-15 22:30N 54°20' E 010°09'0 0.0
2019-Sep-15 22:00N 54°20' E 010°09'0 0.0
2019-Sep-15 21:30N 54°20' E 010°09'0 0.0
2019-Sep-15 21:00N 54°20' E 010°09'0 0.0
2019-Sep-15 20:30N 54°20' E 010°09'0 0.0
2019-Sep-15 20:00N 54°20' E 010°09'0 0.0
2019-Sep-15 19:30N 54°20' E 010°09'0 0.0
2019-Sep-15 19:00N 54°20' E 010°09'0 0.0
2019-Sep-15 18:30N 54°20' E 010°09'0 0.0
2019-Sep-15 18:00N 54°20' E 010°09'0 0.0
2019-Sep-15 17:30N 54°20' E 010°09'0 0.0
2019-Sep-15 17:00N 54°20' E 010°09'0 0.0
2019-Sep-15 16:30N 54°20' E 010°09'0 0.0
2019-Sep-15 16:00N 54°20' E 010°09'0 0.0
2019-Sep-15 15:30N 54°20' E 010°09'0 0.0
2019-Sep-15 15:00N 54°20' E 010°09'0 0.0
2019-Sep-15 14:30N 54°20' E 010°09'0 0.0
2019-Sep-15 14:00N 54°20' E 010°09'0 0.0
2019-Sep-15 13:30N 54°20' E 010°09'0 0.0
2019-Sep-15 13:00N 54°20' E 010°09'0 0.0
2019-Sep-15 12:30N 54°20' E 010°09'0 0.8
2019-Sep-15 12:00N 54°21' E 010°10'2 4.7
2019-Sep-15 11:30N 54°23' E 010°11'2 4.4
2019-Sep-15 11:00N 54°25' E 010°12'2 4.7
2019-Sep-15 10:30N 54°27' E 010°13'4 7.2
2019-Sep-15 10:00N 54°30' E 010°10'4 7.8
2019-Sep-15 09:30N 54°34' E 010°06'4 7.3
2019-Sep-15 09:00N 54°37' E 010°04'3 5.9
2019-Sep-15 08:29N 54°40' E 010°03'1 1.1
2019-Sep-15 08:00N 54°40' E 010°02'0 0.0
2019-Sep-15 07:30N 54°40' E 010°02'0 0.0
2019-Sep-15 07:00N 54°40' E 010°02'0 0.0
2019-Sep-15 06:30N 54°40' E 010°02'0 0.0
2019-Sep-15 06:00N 54°40' E 010°02'0 0.0
2019-Sep-15 05:30N 54°40' E 010°02'0 0.0
2019-Sep-15 05:00N 54°40' E 010°02'0 0.0
2019-Sep-15 04:30N 54°40' E 010°02'0 0.0
2019-Sep-15 04:00N 54°40' E 010°02'0 0.0
2019-Sep-15 03:30N 54°40' E 010°02'0 0.0
2019-Sep-15 02:59N 54°40' E 010°02'0 0.0
2019-Sep-15 02:30N 54°40' E 010°02'0 0.0
2019-Sep-15 02:00N 54°40' E 010°02'0 0.0
2019-Sep-15 01:30N 54°40' E 010°02'0 0.0
2019-Sep-15 01:00N 54°40' E 010°02'0 0.0
2019-Sep-15 00:30N 54°40' E 010°02'0 0.0
2019-Sep-15 00:00N 54°40' E 010°02'0 0.0
2019-Sep-14 23:30N 54°40' E 010°02'0 0.0
2019-Sep-14 23:00N 54°40' E 010°02'0 0.0
2019-Sep-14 22:30N 54°40' E 010°02'0 0.0
2019-Sep-14 22:00N 54°40' E 010°02'0 0.0
2019-Sep-14 21:30N 54°40' E 010°02'0 0.0
2019-Sep-14 21:00N 54°40' E 010°02'0 0.0
2019-Sep-14 20:30N 54°40' E 010°02'0 0.0
2019-Sep-14 20:00N 54°40' E 010°02'0 0.0
2019-Sep-14 19:30N 54°40' E 010°02'0 0.0
2019-Sep-14 19:00N 54°40' E 010°02'0 0.0
2019-Sep-14 18:30N 54°40' E 010°02'0 0.0
2019-Sep-14 18:00N 54°40' E 010°02'0 0.0
2019-Sep-14 17:29N 54°40' E 010°02'0 0.0
2019-Sep-14 17:00N 54°40' E 010°02'0 0.0
2019-Sep-14 16:30N 54°40' E 010°02'3 4.0
2019-Sep-14 15:41N 54°40' E 010°08'1 4.3
2019-Sep-14 15:26N 54°41' E 010°09'13 5.7
2019-Sep-14 13:03N 54°54' E 010°12'4 1.7
2019-Sep-14 10:34N 54°57' E 010°18'2 5.3
2019-Sep-14 10:17N 54°56' E 010°19'2 2.3
2019-Sep-14 09:28N 54°57' E 010°22'2 5.1
2019-Sep-14 09:00N 54°55' E 010°24'2 3.8
2019-Sep-14 08:30N 54°53' E 010°25'0 0.0
2019-Sep-14 08:00N 54°53' E 010°25'0 0.0
2019-Sep-14 07:30N 54°53' E 010°25'0 0.0
2019-Sep-14 07:00N 54°53' E 010°25'0 0.0
2019-Sep-14 06:30N 54°53' E 010°25'0 0.0
2019-Sep-14 06:00N 54°53' E 010°25'0 0.0
2019-Sep-14 05:30N 54°53' E 010°25'0 0.0
2019-Sep-14 05:00N 54°53' E 010°25'0 0.0
2019-Sep-14 04:30N 54°53' E 010°25'0 0.0
2019-Sep-14 04:00N 54°53' E 010°25'0 0.0
2019-Sep-14 03:30N 54°53' E 010°25'0 0.0
2019-Sep-14 03:00N 54°53' E 010°25'0 0.0
2019-Sep-14 02:30N 54°53' E 010°25'0 0.0
2019-Sep-14 02:00N 54°53' E 010°25'0 0.0
2019-Sep-14 01:30N 54°53' E 010°25'0 0.0
2019-Sep-14 01:00N 54°53' E 010°25'0 0.0
2019-Sep-14 00:30N 54°53' E 010°25'0 0.0
2019-Sep-14 00:00N 54°53' E 010°25'0 0.0
2019-Sep-13 23:30N 54°53' E 010°25'0 0.0
2019-Sep-13 23:00N 54°53' E 010°25'0 0.0
2019-Sep-13 22:30N 54°53' E 010°25'0 0.0
2019-Sep-13 22:00N 54°53' E 010°25'0 0.0
2019-Sep-13 21:30N 54°53' E 010°25'0 0.0
2019-Sep-13 21:00N 54°53' E 010°25'0 0.0
2019-Sep-13 20:30N 54°53' E 010°25'0 0.0
2019-Sep-13 20:00N 54°53' E 010°25'0 0.0
2019-Sep-13 19:30N 54°53' E 010°25'0 0.0
2019-Sep-13 19:00N 54°53' E 010°25'0 0.0
2019-Sep-13 18:30N 54°53' E 010°25'0 0.0
2019-Sep-13 18:00N 54°53' E 010°25'0 0.0
2019-Sep-13 17:30N 54°53' E 010°25'0 0.0
2019-Sep-13 17:00N 54°53' E 010°25'0 0.0
2019-Sep-13 16:30N 54°53' E 010°25'0 0.0
2019-Sep-13 16:00N 54°53' E 010°25'0 0.0
2019-Sep-13 15:30N 54°53' E 010°25'0 0.0
2019-Sep-13 15:00N 54°53' E 010°25'0 0.0
2019-Sep-13 14:30N 54°53' E 010°25'0 0.0
2019-Sep-13 14:00N 54°53' E 010°25'0 0.0
2019-Sep-13 13:30N 54°53' E 010°25'0 0.0
2019-Sep-13 13:00N 54°53' E 010°25'0 0.0
2019-Sep-13 12:30N 54°53' E 010°25'0 0.0
2019-Sep-13 12:00N 54°53' E 010°25'0 0.1
2019-Sep-13 11:30N 54°53' E 010°25'3 3.4
2019-Sep-13 10:46N 54°56' E 010°23'1 5.0
2019-Sep-13 10:30N 54°57' E 010°22'4 4.8
2019-Sep-13 09:36N 55°01' E 010°21'4 5.2
2019-Sep-13 08:55N 55°03' E 010°15'14 0.7
2019-Sep-12 12:24N 54°48' E 010°12'3 7.2
2019-Sep-12 12:00N 54°46' E 010°12'4 8.0
2019-Sep-12 11:30N 54°42' E 010°12'4 7.8
2019-Sep-12 11:00N 54°38' E 010°12'3 6.8
2019-Sep-12 10:30N 54°34' E 010°12'3 6.4
2019-Sep-12 10:00N 54°31' E 010°12'3 5.9
2019-Sep-12 09:30N 54°28' E 010°13'2 4.8
2019-Sep-12 09:00N 54°26' E 010°12'2 4.2
2019-Sep-12 08:30N 54°24' E 010°12'3 5.3
2019-Sep-12 08:00N 54°21' E 010°10'1 1.8
2019-Sep-12 07:26N 54°20' E 010°09'0 0.0
2019-Sep-12 07:00N 54°20' E 010°09'0 0.0
2019-Sep-12 06:30N 54°20' E 010°09'0 0.0
2019-Sep-12 06:00N 54°20' E 010°09'0 0.0
2019-Sep-12 05:30N 54°20' E 010°09'0 0.0
2019-Sep-12 05:00N 54°20' E 010°09'0 0.0
2019-Sep-12 04:30N 54°20' E 010°09'0 0.0
2019-Sep-12 04:00N 54°20' E 010°09'0 0.0
2019-Sep-12 03:30N 54°20' E 010°09'0 0.0
2019-Sep-12 03:00N 54°20' E 010°09'0 0.0
2019-Sep-12 02:30N 54°20' E 010°09'0 0.0
2019-Sep-12 02:00N 54°20' E 010°09'0 0.0
2019-Sep-12 01:30N 54°20' E 010°09'0 0.0
2019-Sep-12 01:01N 54°20' E 010°09'0 0.0
2019-Sep-12 00:30N 54°20' E 010°09'0 0.0
2019-Sep-12 00:00N 54°20' E 010°09'0 0.0
2019-Sep-11 23:30N 54°20' E 010°09'0 0.0
2019-Sep-11 23:01N 54°20' E 010°09'0 0.0
2019-Sep-11 22:30N 54°20' E 010°09'0 0.0
2019-Sep-11 22:00N 54°20' E 010°09'0 0.0
2019-Sep-11 21:31N 54°20' E 010°09'0 0.0
2019-Sep-11 21:00N 54°20' E 010°09'0 0.0
2019-Sep-11 20:30N 54°20' E 010°09'0 0.0
2019-Sep-11 20:01N 54°20' E 010°09'0 0.0
2019-Sep-11 19:30N 54°20' E 010°09'0 0.0
2019-Sep-11 19:00N 54°20' E 010°09'0 0.0
2019-Sep-11 18:30N 54°20' E 010°09'0 0.0
2019-Sep-11 18:00N 54°20' E 010°09'0 0.0
2019-Sep-11 17:30N 54°20' E 010°09'0 0.0
2019-Sep-11 17:00N 54°20' E 010°09'0 0.0
2019-Sep-11 16:30N 54°20' E 010°09'0 0.0
2019-Sep-11 16:00N 54°20' E 010°09'0 0.0
2019-Sep-11 15:30N 54°20' E 010°09'0 0.0
2019-Sep-11 15:00N 54°20' E 010°09'0 0.0
2019-Sep-11 14:30N 54°20' E 010°09'0 0.0
2019-Sep-11 14:00N 54°20' E 010°09'0 0.0
2019-Sep-11 13:30N 54°20' E 010°09'0 0.0
2019-Sep-11 13:00N 54°20' E 010°09'0 0.6
2019-Sep-11 12:30N 54°20' E 010°10'3 5.3
2019-Sep-11 12:00N 54°23' E 010°11'3 5.2
2019-Sep-11 11:30N 54°25' E 010°12'3 5.1
2019-Sep-11 11:00N 54°28' E 010°13'3 5.9
2019-Sep-11 10:30N 54°30' E 010°10'3 6.4
2019-Sep-11 10:00N 54°33' E 010°07'3 6.7
2019-Sep-11 09:30N 54°36' E 010°04'3 5.3
2019-Sep-11 09:00N 54°38' E 010°04'3 5.0
2019-Sep-11 08:30N 54°41' E 010°05'5 5.0
2019-Sep-11 07:31N 54°45' E 010°02'2 6.0
2019-Sep-11 07:15N 54°46' E 010°00'2 0.1
2019-Sep-10 11:19N 54°48' E 010°02'2 6.9
2019-Sep-10 11:00N 54°46' E 010°03'3 6.8
2019-Sep-10 10:30N 54°43' E 010°03'3 6.8
2019-Sep-10 10:00N 54°39' E 010°03'4 7.4
2019-Sep-10 09:30N 54°35' E 010°03'3 6.8
2019-Sep-10 09:01N 54°32' E 010°01'3 6.6
2019-Sep-10 08:30N 54°30' E 009°58'3 6.3
2019-Sep-10 08:00N 54°28' E 009°54'2 3.9
2019-Sep-10 07:30N 54°28' E 009°50'0 0.0
2019-Sep-10 07:01N 54°28' E 009°50'0 0.0
2019-Sep-10 06:30N 54°28' E 009°50'0 0.0
2019-Sep-10 06:00N 54°28' E 009°50'0 0.0
2019-Sep-10 05:30N 54°28' E 009°50'0 0.0
2019-Sep-10 05:00N 54°28' E 009°50'0 0.0
2019-Sep-10 04:30N 54°28' E 009°50'0 0.0
2019-Sep-10 04:00N 54°28' E 009°50'0 0.0
2019-Sep-10 03:30N 54°28' E 009°50'0 0.0
2019-Sep-10 03:00N 54°28' E 009°50'0 0.0
2019-Sep-10 02:30N 54°28' E 009°50'0 0.0
2019-Sep-10 02:00N 54°28' E 009°50'0 0.0
2019-Sep-10 01:30N 54°28' E 009°50'0 0.0
2019-Sep-10 01:00N 54°28' E 009°50'0 0.0
2019-Sep-10 00:30N 54°28' E 009°50'0 0.0
2019-Sep-10 00:00N 54°28' E 009°50'0 0.0
2019-Sep-09 23:30N 54°28' E 009°50'0 0.0
2019-Sep-09 23:00N 54°28' E 009°50'0 0.0
2019-Sep-09 22:30N 54°28' E 009°50'0 0.0
2019-Sep-09 22:00N 54°28' E 009°50'0 0.0
2019-Sep-09 21:30N 54°28' E 009°50'0 0.0
2019-Sep-09 21:00N 54°28' E 009°50'0 0.0
2019-Sep-09 20:31N 54°28' E 009°50'0 0.0
2019-Sep-09 20:00N 54°28' E 009°50'0 0.0
2019-Sep-09 19:30N 54°28' E 009°50'0 0.0
2019-Sep-09 19:00N 54°28' E 009°50'0 0.0
2019-Sep-09 18:30N 54°28' E 009°50'0 0.0
2019-Sep-09 18:00N 54°28' E 009°50'0 0.0
2019-Sep-09 17:30N 54°28' E 009°50'3 5.7
2019-Sep-09 17:00N 54°29' E 009°55'3 5.0
2019-Sep-09 16:30N 54°29' E 009°60'3 5.1
2019-Sep-09 15:59N 54°29' E 010°04'3 5.2
2019-Sep-09 15:30N 54°29' E 010°08'2 3.9
2019-Sep-09 15:00N 54°28' E 010°11'2 4.7
2019-Sep-09 14:30N 54°26' E 010°13'3 6.1
2019-Sep-09 14:00N 54°23' E 010°12'3 6.2
2019-Sep-09 13:30N 54°20' E 010°10'0 0.5
2019-Sep-09 13:00N 54°20' E 010°09'0 0.0
2019-Sep-09 12:30N 54°20' E 010°09'0 0.0
2019-Sep-09 12:00N 54°20' E 010°09'0 0.0
2019-Sep-09 11:30N 54°20' E 010°09'0 0.0
2019-Sep-09 11:00N 54°20' E 010°09'0 0.0
2019-Sep-09 10:30N 54°20' E 010°09'0 0.0
2019-Sep-09 10:00N 54°20' E 010°09'0 0.0
2019-Sep-09 09:30N 54°20' E 010°09'0 0.0
2019-Sep-09 09:00N 54°20' E 010°09'0 0.0
2019-Sep-09 08:30N 54°20' E 010°09'0 0.0
2019-Sep-09 08:00N 54°20' E 010°09'0 0.0
2019-Sep-09 07:30N 54°20' E 010°09'0 0.0
2019-Sep-09 07:00N 54°20' E 010°09'0 0.0
2019-Sep-09 06:30N 54°20' E 010°09'0 0.0
2019-Sep-09 06:00N 54°20' E 010°09'0 0.0
2019-Sep-09 05:30N 54°20' E 010°09'0 0.0
2019-Sep-09 05:00N 54°20' E 010°09'0 0.0
2019-Sep-09 04:30N 54°20' E 010°09'0 0.0
2019-Sep-09 04:00N 54°20' E 010°09'0 0.0
2019-Sep-09 03:30N 54°20' E 010°09'0 0.0
2019-Sep-09 03:00N 54°20' E 010°09'0 0.0
2019-Sep-09 02:00N 54°20' E 010°09'0 0.0
2019-Sep-09 01:30N 54°20' E 010°09'0 0.0
2019-Sep-09 01:00N 54°20' E 010°09'0 0.0
2019-Sep-09 00:30N 54°20' E 010°09'0 0.0
2019-Sep-09 00:00N 54°20' E 010°09'0 0.0
2019-Sep-08 23:30N 54°20' E 010°09'0 0.0
2019-Sep-08 23:00N 54°20' E 010°09'0 0.0
2019-Sep-08 22:31N 54°20' E 010°09'0 0.0
2019-Sep-08 22:01N 54°20' E 010°09'0 0.0
2019-Sep-08 21:30N 54°20' E 010°09'0 0.0
2019-Sep-08 21:00N 54°20' E 010°09'0 0.0
2019-Sep-08 20:30N 54°20' E 010°09'0 0.0
2019-Sep-08 20:00N 54°20' E 010°09'0 0.0
2019-Sep-08 19:30N 54°20' E 010°09'0 0.0
2019-Sep-08 19:00N 54°20' E 010°09'0 0.0
2019-Sep-08 18:30N 54°20' E 010°09'0 0.0
2019-Sep-08 18:00N 54°20' E 010°09'0 0.0
2019-Sep-08 17:30N 54°20' E 010°09'0 0.0
2019-Sep-08 17:00N 54°20' E 010°09'0 0.0
2019-Sep-08 16:30N 54°20' E 010°09'0 0.0
2019-Sep-08 16:00N 54°20' E 010°09'0 0.0
2019-Sep-08 15:30N 54°20' E 010°09'0 0.0
2019-Sep-08 15:00N 54°20' E 010°09'0 0.0
2019-Sep-08 14:30N 54°20' E 010°09'3 6.1
2019-Sep-08 14:00N 54°23' E 010°11'4 7.0
2019-Sep-08 13:30N 54°26' E 010°13'3 6.8
2019-Sep-08 13:00N 54°30' E 010°15'3 6.8
2019-Sep-08 12:30N 54°33' E 010°18'4 7.0
2019-Sep-08 12:00N 54°35' E 010°22'3 7.1
2019-Sep-08 11:30N 54°39' E 010°24'3 6.3
2019-Sep-08 11:00N 54°41' E 010°27'3 5.7
2019-Sep-08 10:30N 54°44' E 010°29'2 4.8
2019-Sep-08 10:00N 54°46' E 010°31'1 2.5
2019-Sep-08 09:30N 54°47' E 010°31'1 2.3
2019-Sep-08 09:00N 54°48' E 010°31'1 1.8
2019-Sep-08 08:30N 54°49' E 010°32'2 4.3
2019-Sep-08 08:00N 54°51' E 010°32'0 0.3
2019-Sep-08 07:09N 54°51' E 010°31'0 0.0
2019-Sep-08 06:57N 54°51' E 010°31'0 0.0
2019-Sep-08 06:30N 54°51' E 010°31'0 0.0
2019-Sep-08 05:56N 54°51' E 010°31'0 0.0
2019-Sep-08 05:30N 54°51' E 010°31'0 0.0
2019-Sep-08 04:50N 54°51' E 010°31'0 0.0
2019-Sep-08 03:50N 54°51' E 010°31'0 0.0
2019-Sep-08 03:30N 54°51' E 010°31'0 0.0
2019-Sep-07 23:35N 54°51' E 010°31'0 0.0
2019-Sep-07 21:42N 54°51' E 010°31'0 0.0
2019-Sep-07 21:30N 54°51' E 010°31'0 0.0
2019-Sep-07 21:00N 54°51' E 010°31'0 0.0
2019-Sep-07 20:25N 54°51' E 010°31'0 0.0
2019-Sep-07 19:59N 54°51' E 010°31'0 0.0
2019-Sep-07 19:29N 54°51' E 010°31'0 0.0
2019-Sep-07 19:00N 54°51' E 010°31'0 0.0
2019-Sep-07 18:11N 54°51' E 010°31'0 0.0
2019-Sep-07 18:00N 54°51' E 010°31'0 0.0
2019-Sep-07 17:25N 54°51' E 010°31'0 0.0
2019-Sep-07 16:57N 54°51' E 010°31'0 0.8
2019-Sep-07 16:30N 54°51' E 010°32'1 2.1
2019-Sep-07 16:00N 54°50' E 010°33'1 2.3
2019-Sep-07 15:29N 54°49' E 010°32'1 2.8
2019-Sep-07 15:00N 54°49' E 010°29'1 2.9
2019-Sep-07 14:30N 54°48' E 010°28'2 4.1
2019-Sep-07 14:00N 54°46' E 010°27'2 4.6
2019-Sep-07 13:30N 54°44' E 010°25'3 5.4
2019-Sep-07 13:00N 54°41' E 010°23'3 5.7
2019-Sep-07 12:30N 54°39' E 010°20'2 4.3
2019-Sep-07 12:01N 54°37' E 010°20'2 3.1
2019-Sep-07 11:30N 54°35' E 010°19'2 3.1
2019-Sep-07 11:00N 54°34' E 010°18'2 4.0
2019-Sep-07 10:30N 54°32' E 010°18'2 3.0
2019-Sep-07 10:00N 54°30' E 010°17'1 2.9
2019-Sep-07 09:30N 54°29' E 010°16'3 6.3
2019-Sep-07 09:00N 54°26' E 010°13'3 6.2
2019-Sep-07 08:30N 54°23' E 010°12'3 6.7
2019-Sep-07 08:00N 54°20' E 010°10'0 0.1
2019-Sep-07 07:28N 54°20' E 010°09'0 0.0
2019-Sep-07 06:58N 54°20' E 010°09'0 0.0
2019-Sep-07 06:28N 54°20' E 010°09'0 0.0
2019-Sep-07 05:58N 54°20' E 010°09'0 0.0
2019-Sep-07 05:28N 54°20' E 010°09'0 0.0
2019-Sep-07 04:58N 54°20' E 010°09'0 0.0
2019-Sep-07 04:28N 54°20' E 010°09'0 0.0
2019-Sep-07 03:58N 54°20' E 010°09'0 0.0
2019-Sep-07 03:28N 54°20' E 010°09'0 0.0
2019-Sep-07 02:58N 54°20' E 010°09'0 0.0
2019-Sep-07 02:28N 54°20' E 010°09'0 0.0
2019-Sep-07 01:58N 54°20' E 010°09'0 0.0
2019-Sep-07 01:28N 54°20' E 010°09'0 0.0
2019-Sep-07 00:58N 54°20' E 010°09'0 0.0
2019-Sep-07 00:28N 54°20' E 010°09'0 0.0
2019-Sep-06 23:58N 54°20' E 010°09'0 0.0
2019-Sep-06 23:28N 54°20' E 010°09'0 0.0
2019-Sep-06 22:58N 54°20' E 010°09'0 0.0
2019-Sep-06 22:28N 54°20' E 010°09'0 0.0
2019-Sep-06 21:58N 54°20' E 010°09'0 0.0
2019-Sep-06 21:28N 54°20' E 010°09'0 0.0
2019-Sep-06 20:52N 54°20' E 010°09'0 0.0
2019-Sep-06 20:28N 54°20' E 010°09'0 0.0
2019-Sep-06 19:58N 54°20' E 010°09'0 0.0
2019-Sep-06 19:28N 54°20' E 010°09'0 0.0
2019-Sep-06 18:58N 54°20' E 010°09'0 0.0
2019-Sep-06 18:28N 54°20' E 010°09'0 0.0
2019-Sep-06 17:58N 54°20' E 010°09'0 0.0
2019-Sep-06 17:28N 54°20' E 010°09'0 0.0
2019-Sep-06 16:58N 54°20' E 010°09'0 0.0
2019-Sep-06 16:28N 54°20' E 010°09'0 0.0
2019-Sep-06 15:58N 54°20' E 010°09'0 0.0
2019-Sep-06 15:28N 54°20' E 010°09'0 0.0
2019-Sep-06 14:58N 54°20' E 010°09'0 0.0
2019-Sep-06 14:28N 54°20' E 010°09'0 0.0
2019-Sep-06 13:58N 54°20' E 010°09'0 0.0
2019-Sep-06 13:28N 54°20' E 010°09'0 0.0
2019-Sep-06 12:58N 54°20' E 010°09'0 0.0
2019-Sep-06 12:28N 54°20' E 010°09'0 0.0
2019-Sep-06 11:58N 54°20' E 010°09'0 0.3
2019-Sep-06 11:31N 54°20' E 010°10'2 4.5
2019-Sep-06 11:00N 54°22' E 010°11'2 4.8
2019-Sep-06 10:31N 54°25' E 010°12'2 4.0
2019-Sep-06 10:01N 54°27' E 010°13'3 5.4
2019-Sep-06 09:30N 54°29' E 010°10'4 7.2
2019-Sep-06 09:01N 54°31' E 010°06'0 0.7
2019-Sep-06 08:30N 54°31' E 010°05'1 2.6
2019-Sep-06 08:01N 54°32' E 010°04'3 5.4
2019-Sep-06 07:31N 54°35' E 010°02'0 0.8
2019-Sep-06 07:00N 54°35' E 010°02'  
Track history (hours):
 
Tides and Currents Weather Stations Pressure Air Temp Water Temp Dewpoint Dewpoint Depression Visibility Wind Speed Wind Dir Waves Ship Positions

Oban

Last reported at 2019-Sep-16 06:47 UTC. Time now 2019-Sep-16 22:11 UTC.
Position N 54°20' E 010°09'.

Length 39 m; draft 2.8 m.

Type: Sailing vessel. MMSI: 246085000.

Date/timePositionNaut miles runAvg speedWind from/ knotsBaromVisibWave heightAir tempDewpointWater temp
2019-Sep-16 06:47N 54°20' E 010°09'0 0.0
2019-Sep-16 06:30N 54°20' E 010°09'0 0.0
2019-Sep-16 06:00N 54°20' E 010°09'0 0.0
2019-Sep-16 05:30N 54°20' E 010°09'0 0.0
2019-Sep-16 05:00N 54°20' E 010°09'0 0.0
2019-Sep-16 04:30N 54°20' E 010°09'0 0.0
2019-Sep-16 04:00N 54°20' E 010°09'0 0.0
2019-Sep-16 03:30N 54°20' E 010°09'0 0.0
2019-Sep-16 03:00N 54°20' E 010°09'0 0.0
2019-Sep-16 02:30N 54°20' E 010°09'0 0.0
2019-Sep-16 02:00N 54°20' E 010°09'0 0.0
2019-Sep-16 01:30N 54°20' E 010°09'0 0.0
2019-Sep-16 01:00N 54°20' E 010°09'0 0.0
2019-Sep-16 00:30N 54°20' E 010°09'0 0.0
2019-Sep-16 00:00N 54°20' E 010°09'0 0.0
2019-Sep-15 23:30N 54°20' E 010°09'0 0.0
2019-Sep-15 23:00N 54°20' E 010°09'0 0.0
2019-Sep-15 22:30N 54°20' E 010°09'0 0.0
2019-Sep-15 22:00N 54°20' E 010°09'0 0.0
2019-Sep-15 21:30N 54°20' E 010°09'0 0.0
2019-Sep-15 21:00N 54°20' E 010°09'0 0.0
2019-Sep-15 20:30N 54°20' E 010°09'0 0.0
2019-Sep-15 20:00N 54°20' E 010°09'0 0.0
2019-Sep-15 19:30N 54°20' E 010°09'0 0.0
2019-Sep-15 19:00N 54°20' E 010°09'0 0.0
2019-Sep-15 18:30N 54°20' E 010°09'0 0.0
2019-Sep-15 18:00N 54°20' E 010°09'0 0.0
2019-Sep-15 17:30N 54°20' E 010°09'0 0.0
2019-Sep-15 17:00N 54°20' E 010°09'0 0.0
2019-Sep-15 16:30N 54°20' E 010°09'0 0.0
2019-Sep-15 16:00N 54°20' E 010°09'0 0.0
2019-Sep-15 15:30N 54°20' E 010°09'0 0.0
2019-Sep-15 15:00N 54°20' E 010°09'0 0.0
2019-Sep-15 14:30N 54°20' E 010°09'0 0.0
2019-Sep-15 14:00N 54°20' E 010°09'0 0.0
2019-Sep-15 13:30N 54°20' E 010°09'0 0.0
2019-Sep-15 13:00N 54°20' E 010°09'0 0.0
2019-Sep-15 12:30N 54°20' E 010°09'0 0.8
2019-Sep-15 12:00N 54°21' E 010°10'2 4.7
2019-Sep-15 11:30N 54°23' E 010°11'2 4.4
2019-Sep-15 11:00N 54°25' E 010°12'2 4.7
2019-Sep-15 10:30N 54°27' E 010°13'4 7.2
2019-Sep-15 10:00N 54°30' E 010°10'4 7.8
2019-Sep-15 09:30N 54°34' E 010°06'4 7.3
2019-Sep-15 09:00N 54°37' E 010°04'3 5.9
2019-Sep-15 08:29N 54°40' E 010°03'1 1.1
2019-Sep-15 08:00N 54°40' E 010°02'0 0.0
2019-Sep-15 07:30N 54°40' E 010°02'0 0.0
2019-Sep-15 07:00N 54°40' E 010°02'0 0.0
2019-Sep-15 06:30N 54°40' E 010°02'0 0.0
2019-Sep-15 06:00N 54°40' E 010°02'0 0.0
2019-Sep-15 05:30N 54°40' E 010°02'0 0.0
2019-Sep-15 05:00N 54°40' E 010°02'0 0.0
2019-Sep-15 04:30N 54°40' E 010°02'0 0.0
2019-Sep-15 04:00N 54°40' E 010°02'0 0.0
2019-Sep-15 03:30N 54°40' E 010°02'0 0.0
2019-Sep-15 02:59N 54°40' E 010°02'0 0.0
2019-Sep-15 02:30N 54°40' E 010°02'0 0.0
2019-Sep-15 02:00N 54°40' E 010°02'0 0.0
2019-Sep-15 01:30N 54°40' E 010°02'0 0.0
2019-Sep-15 01:00N 54°40' E 010°02'0 0.0
2019-Sep-15 00:30N 54°40' E 010°02'0 0.0
2019-Sep-15 00:00N 54°40' E 010°02'0 0.0
2019-Sep-14 23:30N 54°40' E 010°02'0 0.0
2019-Sep-14 23:00N 54°40' E 010°02'0 0.0
2019-Sep-14 22:30N 54°40' E 010°02'0 0.0
2019-Sep-14 22:00N 54°40' E 010°02'0 0.0
2019-Sep-14 21:30N 54°40' E 010°02'0 0.0
2019-Sep-14 21:00N 54°40' E 010°02'0 0.0
2019-Sep-14 20:30N 54°40' E 010°02'0 0.0
2019-Sep-14 20:00N 54°40' E 010°02'0 0.0
2019-Sep-14 19:30N 54°40' E 010°02'0 0.0
2019-Sep-14 19:00N 54°40' E 010°02'0 0.0
2019-Sep-14 18:30N 54°40' E 010°02'0 0.0
2019-Sep-14 18:00N 54°40' E 010°02'0 0.0
2019-Sep-14 17:29N 54°40' E 010°02'0 0.0
2019-Sep-14 17:00N 54°40' E 010°02'0 0.0
2019-Sep-14 16:30N 54°40' E 010°02'3 4.0
2019-Sep-14 15:41N 54°40' E 010°08'1 4.3
2019-Sep-14 15:26N 54°41' E 010°09'13 5.7
2019-Sep-14 13:03N 54°54' E 010°12'4 1.7
2019-Sep-14 10:34N 54°57' E 010°18'2 5.3
2019-Sep-14 10:17N 54°56' E 010°19'2 2.3
2019-Sep-14 09:28N 54°57' E 010°22'2 5.1
2019-Sep-14 09:00N 54°55' E 010°24'2 3.8
2019-Sep-14 08:30N 54°53' E 010°25'0 0.0
2019-Sep-14 08:00N 54°53' E 010°25'0 0.0
2019-Sep-14 07:30N 54°53' E 010°25'0 0.0
2019-Sep-14 07:00N 54°53' E 010°25'0 0.0
2019-Sep-14 06:30N 54°53' E 010°25'0 0.0
2019-Sep-14 06:00N 54°53' E 010°25'0 0.0
2019-Sep-14 05:30N 54°53' E 010°25'0 0.0
2019-Sep-14 05:00N 54°53' E 010°25'0 0.0
2019-Sep-14 04:30N 54°53' E 010°25'0 0.0
2019-Sep-14 04:00N 54°53' E 010°25'0 0.0
2019-Sep-14 03:30N 54°53' E 010°25'0 0.0
2019-Sep-14 03:00N 54°53' E 010°25'0 0.0
2019-Sep-14 02:30N 54°53' E 010°25'0 0.0
2019-Sep-14 02:00N 54°53' E 010°25'0 0.0
2019-Sep-14 01:30N 54°53' E 010°25'0 0.0
2019-Sep-14 01:00N 54°53' E 010°25'0 0.0
2019-Sep-14 00:30N 54°53' E 010°25'0 0.0
2019-Sep-14 00:00N 54°53' E 010°25'0 0.0
2019-Sep-13 23:30N 54°53' E 010°25'0 0.0
2019-Sep-13 23:00N 54°53' E 010°25'0 0.0
2019-Sep-13 22:30N 54°53' E 010°25'0 0.0
2019-Sep-13 22:00N 54°53' E 010°25'0 0.0
2019-Sep-13 21:30N 54°53' E 010°25'0 0.0
2019-Sep-13 21:00N 54°53' E 010°25'0 0.0
2019-Sep-13 20:30N 54°53' E 010°25'0 0.0
2019-Sep-13 20:00N 54°53' E 010°25'0 0.0
2019-Sep-13 19:30N 54°53' E 010°25'0 0.0
2019-Sep-13 19:00N 54°53' E 010°25'0 0.0
2019-Sep-13 18:30N 54°53' E 010°25'0 0.0
2019-Sep-13 18:00N 54°53' E 010°25'0 0.0
2019-Sep-13 17:30N 54°53' E 010°25'0 0.0
2019-Sep-13 17:00N 54°53' E 010°25'0 0.0
2019-Sep-13 16:30N 54°53' E 010°25'0 0.0
2019-Sep-13 16:00N 54°53' E 010°25'0 0.0
2019-Sep-13 15:30N 54°53' E 010°25'0 0.0
2019-Sep-13 15:00N 54°53' E 010°25'0 0.0
2019-Sep-13 14:30N 54°53' E 010°25'0 0.0
2019-Sep-13 14:00N 54°53' E 010°25'0 0.0
2019-Sep-13 13:30N 54°53' E 010°25'0 0.0
2019-Sep-13 13:00N 54°53' E 010°25'0 0.0
2019-Sep-13 12:30N 54°53' E 010°25'0 0.0
2019-Sep-13 12:00N 54°53' E 010°25'0 0.1
2019-Sep-13 11:30N 54°53' E 010°25'3 3.4
2019-Sep-13 10:46N 54°56' E 010°23'1 5.0
2019-Sep-13 10:30N 54°57' E 010°22'4 4.8
2019-Sep-13 09:36N 55°01' E 010°21'4 5.2
2019-Sep-13 08:55N 55°03' E 010°15'14 0.7
2019-Sep-12 12:24N 54°48' E 010°12'3 7.2
2019-Sep-12 12:00N 54°46' E 010°12'4 8.0
2019-Sep-12 11:30N 54°42' E 010°12'4 7.8
2019-Sep-12 11:00N 54°38' E 010°12'3 6.8
2019-Sep-12 10:30N 54°34' E 010°12'3 6.4
2019-Sep-12 10:00N 54°31' E 010°12'3 5.9
2019-Sep-12 09:30N 54°28' E 010°13'2 4.8
2019-Sep-12 09:00N 54°26' E 010°12'2 4.2
2019-Sep-12 08:30N 54°24' E 010°12'3 5.3
2019-Sep-12 08:00N 54°21' E 010°10'1 1.8
2019-Sep-12 07:26N 54°20' E 010°09'0 0.0
2019-Sep-12 07:00N 54°20' E 010°09'0 0.0
2019-Sep-12 06:30N 54°20' E 010°09'0 0.0
2019-Sep-12 06:00N 54°20' E 010°09'0 0.0
2019-Sep-12 05:30N 54°20' E 010°09'0 0.0
2019-Sep-12 05:00N 54°20' E 010°09'0 0.0
2019-Sep-12 04:30N 54°20' E 010°09'0 0.0
2019-Sep-12 04:00N 54°20' E 010°09'0 0.0
2019-Sep-12 03:30N 54°20' E 010°09'0 0.0
2019-Sep-12 03:00N 54°20' E 010°09'0 0.0
2019-Sep-12 02:30N 54°20' E 010°09'0 0.0
2019-Sep-12 02:00N 54°20' E 010°09'0 0.0
2019-Sep-12 01:30N 54°20' E 010°09'0 0.0
2019-Sep-12 01:01N 54°20' E 010°09'0 0.0
2019-Sep-12 00:30N 54°20' E 010°09'0 0.0
2019-Sep-12 00:00N 54°20' E 010°09'0 0.0
2019-Sep-11 23:30N 54°20' E 010°09'0 0.0
2019-Sep-11 23:01N 54°20' E 010°09'0 0.0
2019-Sep-11 22:30N 54°20' E 010°09'0 0.0
2019-Sep-11 22:00N 54°20' E 010°09'0 0.0
2019-Sep-11 21:31N 54°20' E 010°09'0 0.0
2019-Sep-11 21:00N 54°20' E 010°09'0 0.0
2019-Sep-11 20:30N 54°20' E 010°09'0 0.0
2019-Sep-11 20:01N 54°20' E 010°09'0 0.0
2019-Sep-11 19:30N 54°20' E 010°09'0 0.0
2019-Sep-11 19:00N 54°20' E 010°09'0 0.0
2019-Sep-11 18:30N 54°20' E 010°09'0 0.0
2019-Sep-11 18:00N 54°20' E 010°09'0 0.0
2019-Sep-11 17:30N 54°20' E 010°09'0 0.0
2019-Sep-11 17:00N 54°20' E 010°09'0 0.0
2019-Sep-11 16:30N 54°20' E 010°09'0 0.0
2019-Sep-11 16:00N 54°20' E 010°09'0 0.0
2019-Sep-11 15:30N 54°20' E 010°09'0 0.0
2019-Sep-11 15:00N 54°20' E 010°09'0 0.0
2019-Sep-11 14:30N 54°20' E 010°09'0 0.0
2019-Sep-11 14:00N 54°20' E 010°09'0 0.0
2019-Sep-11 13:30N 54°20' E 010°09'0 0.0
2019-Sep-11 13:00N 54°20' E 010°09'0 0.6
2019-Sep-11 12:30N 54°20' E 010°10'3 5.3
2019-Sep-11 12:00N 54°23' E 010°11'3 5.2
2019-Sep-11 11:30N 54°25' E 010°12'3 5.1
2019-Sep-11 11:00N 54°28' E 010°13'3 5.9
2019-Sep-11 10:30N 54°30' E 010°10'3 6.4
2019-Sep-11 10:00N 54°33' E 010°07'3 6.7
2019-Sep-11 09:30N 54°36' E 010°04'3 5.3
2019-Sep-11 09:00N 54°38' E 010°04'3 5.0
2019-Sep-11 08:30N 54°41' E 010°05'5 5.0
2019-Sep-11 07:31N 54°45' E 010°02'2 6.0
2019-Sep-11 07:15N 54°46' E 010°00'2 0.1
2019-Sep-10 11:19N 54°48' E 010°02'2 6.9
2019-Sep-10 11:00N 54°46' E 010°03'3 6.8
2019-Sep-10 10:30N 54°43' E 010°03'3 6.8
2019-Sep-10 10:00N 54°39' E 010°03'4 7.4
2019-Sep-10 09:30N 54°35' E 010°03'3 6.8
2019-Sep-10 09:01N 54°32' E 010°01'3 6.6
2019-Sep-10 08:30N 54°30' E 009°58'3 6.3
2019-Sep-10 08:00N 54°28' E 009°54'2 3.9
2019-Sep-10 07:30N 54°28' E 009°50'0 0.0
2019-Sep-10 07:01N 54°28' E 009°50'0 0.0
2019-Sep-10 06:30N 54°28' E 009°50'0 0.0
2019-Sep-10 06:00N 54°28' E 009°50'0 0.0
2019-Sep-10 05:30N 54°28' E 009°50'0 0.0
2019-Sep-10 05:00N 54°28' E 009°50'0 0.0
2019-Sep-10 04:30N 54°28' E 009°50'0 0.0
2019-Sep-10 04:00N 54°28' E 009°50'0 0.0
2019-Sep-10 03:30N 54°28' E 009°50'0 0.0
2019-Sep-10 03:00N 54°28' E 009°50'0 0.0
2019-Sep-10 02:30N 54°28' E 009°50'0 0.0
2019-Sep-10 02:00N 54°28' E 009°50'0 0.0
2019-Sep-10 01:30N 54°28' E 009°50'0 0.0
2019-Sep-10 01:00N 54°28' E 009°50'0 0.0
2019-Sep-10 00:30N 54°28' E 009°50'0 0.0
2019-Sep-10 00:00N 54°28' E 009°50'0 0.0
2019-Sep-09 23:30N 54°28' E 009°50'0 0.0
2019-Sep-09 23:00N 54°28' E 009°50'0 0.0
2019-Sep-09 22:30N 54°28' E 009°50'0 0.0
2019-Sep-09 22:00N 54°28' E 009°50'0 0.0
2019-Sep-09 21:30N 54°28' E 009°50'0 0.0
2019-Sep-09 21:00N 54°28' E 009°50'0 0.0
2019-Sep-09 20:31N 54°28' E 009°50'0 0.0
2019-Sep-09 20:00N 54°28' E 009°50'0 0.0
2019-Sep-09 19:30N 54°28' E 009°50'0 0.0
2019-Sep-09 19:00N 54°28' E 009°50'0 0.0
2019-Sep-09 18:30N 54°28' E 009°50'0 0.0
2019-Sep-09 18:00N 54°28' E 009°50'0 0.0
2019-Sep-09 17:30N 54°28' E 009°50'3 5.7
2019-Sep-09 17:00N 54°29' E 009°55'3 5.0
2019-Sep-09 16:30N 54°29' E 009°60'3 5.1
2019-Sep-09 15:59N 54°29' E 010°04'3 5.2
2019-Sep-09 15:30N 54°29' E 010°08'2 3.9
2019-Sep-09 15:00N 54°28' E 010°11'2 4.7
2019-Sep-09 14:30N 54°26' E 010°13'3 6.1
2019-Sep-09 14:00N 54°23' E 010°12'3 6.2
2019-Sep-09 13:30N 54°20' E 010°10'0 0.5
2019-Sep-09 13:00N 54°20' E 010°09'0 0.0
2019-Sep-09 12:30N 54°20' E 010°09'0 0.0
2019-Sep-09 12:00N 54°20' E 010°09'0 0.0
2019-Sep-09 11:30N 54°20' E 010°09'0 0.0
2019-Sep-09 11:00N 54°20' E 010°09'0 0.0
2019-Sep-09 10:30N 54°20' E 010°09'0 0.0
2019-Sep-09 10:00N 54°20' E 010°09'0 0.0
2019-Sep-09 09:30N 54°20' E 010°09'0 0.0
2019-Sep-09 09:00N 54°20' E 010°09'0 0.0
2019-Sep-09 08:30N 54°20' E 010°09'0 0.0
2019-Sep-09 08:00N 54°20' E 010°09'0 0.0
2019-Sep-09 07:30N 54°20' E 010°09'0 0.0
2019-Sep-09 07:00N 54°20' E 010°09'0 0.0
2019-Sep-09 06:30N 54°20' E 010°09'0 0.0
2019-Sep-09 06:00N 54°20' E 010°09'0 0.0
2019-Sep-09 05:30N 54°20' E 010°09'0 0.0
2019-Sep-09 05:00N 54°20' E 010°09'0 0.0
2019-Sep-09 04:30N 54°20' E 010°09'0 0.0
2019-Sep-09 04:00N 54°20' E 010°09'0 0.0
2019-Sep-09 03:30N 54°20' E 010°09'0 0.0
2019-Sep-09 03:00N 54°20' E 010°09'0 0.0
2019-Sep-09 02:00N 54°20' E 010°09'0 0.0
2019-Sep-09 01:30N 54°20' E 010°09'0 0.0
2019-Sep-09 01:00N 54°20' E 010°09'0 0.0
2019-Sep-09 00:30N 54°20' E 010°09'0 0.0
2019-Sep-09 00:00N 54°20' E 010°09'0 0.0
2019-Sep-08 23:30N 54°20' E 010°09'0 0.0
2019-Sep-08 23:00N 54°20' E 010°09'0 0.0
2019-Sep-08 22:31N 54°20' E 010°09'0 0.0
2019-Sep-08 22:01N 54°20' E 010°09'0 0.0
2019-Sep-08 21:30N 54°20' E 010°09'0 0.0
2019-Sep-08 21:00N 54°20' E 010°09'0 0.0
2019-Sep-08 20:30N 54°20' E 010°09'0 0.0
2019-Sep-08 20:00N 54°20' E 010°09'0 0.0
2019-Sep-08 19:30N 54°20' E 010°09'0 0.0
2019-Sep-08 19:00N 54°20' E 010°09'0 0.0
2019-Sep-08 18:30N 54°20' E 010°09'0 0.0
2019-Sep-08 18:00N 54°20' E 010°09'0 0.0
2019-Sep-08 17:30N 54°20' E 010°09'0 0.0
2019-Sep-08 17:00N 54°20' E 010°09'0 0.0
2019-Sep-08 16:30N 54°20' E 010°09'0 0.0
2019-Sep-08 16:00N 54°20' E 010°09'0 0.0
2019-Sep-08 15:30N 54°20' E 010°09'0 0.0
2019-Sep-08 15:00N 54°20' E 010°09'0 0.0
2019-Sep-08 14:30N 54°20' E 010°09'3 6.1
2019-Sep-08 14:00N 54°23' E 010°11'4 7.0
2019-Sep-08 13:30N 54°26' E 010°13'3 6.8
2019-Sep-08 13:00N 54°30' E 010°15'3 6.8
2019-Sep-08 12:30N 54°33' E 010°18'4 7.0
2019-Sep-08 12:00N 54°35' E 010°22'3 7.1
2019-Sep-08 11:30N 54°39' E 010°24'3 6.3
2019-Sep-08 11:00N 54°41' E 010°27'3 5.7
2019-Sep-08 10:30N 54°44' E 010°29'2 4.8
2019-Sep-08 10:00N 54°46' E 010°31'1 2.5
2019-Sep-08 09:30N 54°47' E 010°31'1 2.3
2019-Sep-08 09:00N 54°48' E 010°31'1 1.8
2019-Sep-08 08:30N 54°49' E 010°32'2 4.3
2019-Sep-08 08:00N 54°51' E 010°32'0 0.3
2019-Sep-08 07:09N 54°51' E 010°31'0 0.0
2019-Sep-08 06:57N 54°51' E 010°31'0 0.0
2019-Sep-08 06:30N 54°51' E 010°31'0 0.0
2019-Sep-08 05:56N 54°51' E 010°31'0 0.0
2019-Sep-08 05:30N 54°51' E 010°31'0 0.0
2019-Sep-08 04:50N 54°51' E 010°31'0 0.0
2019-Sep-08 03:50N 54°51' E 010°31'0 0.0
2019-Sep-08 03:30N 54°51' E 010°31'0 0.0
2019-Sep-07 23:35N 54°51' E 010°31'0 0.0
2019-Sep-07 21:42N 54°51' E 010°31'0 0.0
2019-Sep-07 21:30N 54°51' E 010°31'0 0.0
2019-Sep-07 21:00N 54°51' E 010°31'0 0.0
2019-Sep-07 20:25N 54°51' E 010°31'0 0.0
2019-Sep-07 19:59N 54°51' E 010°31'0 0.0
2019-Sep-07 19:29N 54°51' E 010°31'0 0.0
2019-Sep-07 19:00N 54°51' E 010°31'0 0.0
2019-Sep-07 18:11N 54°51' E 010°31'0 0.0
2019-Sep-07 18:00N 54°51' E 010°31'0 0.0
2019-Sep-07 17:25N 54°51' E 010°31'0 0.0
2019-Sep-07 16:57N 54°51' E 010°31'0 0.8
2019-Sep-07 16:30N 54°51' E 010°32'1 2.1
2019-Sep-07 16:00N 54°50' E 010°33'1 2.3
2019-Sep-07 15:29N 54°49' E 010°32'1 2.8
2019-Sep-07 15:00N 54°49' E 010°29'1 2.9
2019-Sep-07 14:30N 54°48' E 010°28'2 4.1
2019-Sep-07 14:00N 54°46' E 010°27'2 4.6
2019-Sep-07 13:30N 54°44' E 010°25'3 5.4
2019-Sep-07 13:00N 54°41' E 010°23'3 5.7
2019-Sep-07 12:30N 54°39' E 010°20'2 4.3
2019-Sep-07 12:01N 54°37' E 010°20'2 3.1
2019-Sep-07 11:30N 54°35' E 010°19'2 3.1
2019-Sep-07 11:00N 54°34' E 010°18'2 4.0
2019-Sep-07 10:30N 54°32' E 010°18'2 3.0
2019-Sep-07 10:00N 54°30' E 010°17'1 2.9
2019-Sep-07 09:30N 54°29' E 010°16'3 6.3
2019-Sep-07 09:00N 54°26' E 010°13'3 6.2
2019-Sep-07 08:30N 54°23' E 010°12'3 6.7
2019-Sep-07 08:00N 54°20' E 010°10'0 0.1
2019-Sep-07 07:28N 54°20' E 010°09'0 0.0
2019-Sep-07 06:58N 54°20' E 010°09'0 0.0
2019-Sep-07 06:28N 54°20' E 010°09'0 0.0
2019-Sep-07 05:58N 54°20' E 010°09'0 0.0
2019-Sep-07 05:28N 54°20' E 010°09'0 0.0
2019-Sep-07 04:58N 54°20' E 010°09'0 0.0
2019-Sep-07 04:28N 54°20' E 010°09'0 0.0
2019-Sep-07 03:58N 54°20' E 010°09'0 0.0
2019-Sep-07 03:28N 54°20' E 010°09'0 0.0
2019-Sep-07 02:58N 54°20' E 010°09'0 0.0
2019-Sep-07 02:28N 54°20' E 010°09'0 0.0
2019-Sep-07 01:58N 54°20' E 010°09'0 0.0
2019-Sep-07 01:28N 54°20' E 010°09'0 0.0
2019-Sep-07 00:58N 54°20' E 010°09'0 0.0
2019-Sep-07 00:28N 54°20' E 010°09'0 0.0
2019-Sep-06 23:58N 54°20' E 010°09'0 0.0
2019-Sep-06 23:28N 54°20' E 010°09'0 0.0
2019-Sep-06 22:58N 54°20' E 010°09'0 0.0
2019-Sep-06 22:28N 54°20' E 010°09'0 0.0
2019-Sep-06 21:58N 54°20' E 010°09'0 0.0
2019-Sep-06 21:28N 54°20' E 010°09'0 0.0
2019-Sep-06 20:52N 54°20' E 010°09'0 0.0
2019-Sep-06 20:28N 54°20' E 010°09'0 0.0
2019-Sep-06 19:58N 54°20' E 010°09'0 0.0
2019-Sep-06 19:28N 54°20' E 010°09'0 0.0
2019-Sep-06 18:58N 54°20' E 010°09'0 0.0
2019-Sep-06 18:28N 54°20' E 010°09'0 0.0
2019-Sep-06 17:58N 54°20' E 010°09'0 0.0
2019-Sep-06 17:28N 54°20' E 010°09'0 0.0
2019-Sep-06 16:58N 54°20' E 010°09'0 0.0
2019-Sep-06 16:28N 54°20' E 010°09'0 0.0
2019-Sep-06 15:58N 54°20' E 010°09'0 0.0
2019-Sep-06 15:28N 54°20' E 010°09'0 0.0
2019-Sep-06 14:58N 54°20' E 010°09'0 0.0
2019-Sep-06 14:28N 54°20' E 010°09'0 0.0
2019-Sep-06 13:58N 54°20' E 010°09'0 0.0
2019-Sep-06 13:28N 54°20' E 010°09'0 0.0
2019-Sep-06 12:58N 54°20' E 010°09'0 0.0
2019-Sep-06 12:28N 54°20' E 010°09'0 0.0
2019-Sep-06 11:58N 54°20' E 010°09'0 0.3
2019-Sep-06 11:31N 54°20' E 010°10'2 4.5
2019-Sep-06 11:00N 54°22' E 010°11'2 4.8
2019-Sep-06 10:31N 54°25' E 010°12'2 4.0
2019-Sep-06 10:01N 54°27' E 010°13'3 5.4
2019-Sep-06 09:30N 54°29' E 010°10'4 7.2
2019-Sep-06 09:01N 54°31' E 010°06'0 0.7
2019-Sep-06 08:30N 54°31' E 010°05'1 2.6
2019-Sep-06 08:01N 54°32' E 010°04'3 5.4
2019-Sep-06 07:31N 54°35' E 010°02'0 0.8
2019-Sep-06 07:00N 54°35' E 010°02'  

Dump ship's entire track history